sensor_id;sensor_type;location;lat;lon;timestamp;pressure;altitude;pressure_sealevel;temperature;humidity
12666;BME280;58531;59.050;17.416;2022-08-30T00:00:05;101649.34;;;10.71;94.45
12666;BME280;58531;59.050;17.416;2022-08-30T00:02:52;101647.81;;;10.70;93.94
12666;BME280;58531;59.050;17.416;2022-08-30T00:05:19;101641.75;;;10.69;94.25
12666;BME280;58531;59.050;17.416;2022-08-30T00:07:46;101638.31;;;10.69;94.27
12666;BME280;58531;59.050;17.416;2022-08-30T00:10:13;101644.88;;;10.64;94.16
12666;BME280;58531;59.050;17.416;2022-08-30T00:12:40;101643.09;;;10.58;94.48
12666;BME280;58531;59.050;17.416;2022-08-30T00:15:09;101641.19;;;10.58;94.70
12666;BME280;58531;59.050;17.416;2022-08-30T00:17:36;101647.25;;;10.59;95.15
12666;BME280;58531;59.050;17.416;2022-08-30T00:20:07;101632.81;;;10.57;94.75
12666;BME280;58531;59.050;17.416;2022-08-30T00:22:34;101638.84;;;10.60;94.74
12666;BME280;58531;59.050;17.416;2022-08-30T00:25:01;101641.09;;;10.62;94.29
12666;BME280;58531;59.050;17.416;2022-08-30T00:27:29;101645.41;;;10.56;94.42
12666;BME280;58531;59.050;17.416;2022-08-30T00:29:56;101640.50;;;10.55;94.56
12666;BME280;58531;59.050;17.416;2022-08-30T00:32:23;101640.53;;;10.51;94.52
12666;BME280;58531;59.050;17.416;2022-08-30T00:34:52;101639.78;;;10.51;94.51
12666;BME280;58531;59.050;17.416;2022-08-30T00:37:20;101656.22;;;10.49;94.18
12666;BME280;58531;59.050;17.416;2022-08-30T00:39:48;101644.78;;;10.49;94.40
12666;BME280;58531;59.050;17.416;2022-08-30T00:42:16;101647.53;;;10.45;94.56
12666;BME280;58531;59.050;17.416;2022-08-30T00:44:43;101646.34;;;10.46;94.54
12666;BME280;58531;59.050;17.416;2022-08-30T00:47:11;101646.16;;;10.37;94.62
12666;BME280;58531;59.050;17.416;2022-08-30T00:49:41;101641.28;;;10.32;95.49
12666;BME280;58531;59.050;17.416;2022-08-30T00:52:08;101644.63;;;10.36;95.12
12666;BME280;58531;59.050;17.416;2022-08-30T00:54:39;101636.31;;;10.31;95.42
12666;BME280;58531;59.050;17.416;2022-08-30T00:57:09;101641.63;;;10.34;94.93
12666;BME280;58531;59.050;17.416;2022-08-30T00:59:36;101651.13;;;10.35;94.75
12666;BME280;58531;59.050;17.416;2022-08-30T01:02:03;101645.09;;;10.31;95.12
12666;BME280;58531;59.050;17.416;2022-08-30T01:04:31;101642.38;;;10.35;94.50
12666;BME280;58531;59.050;17.416;2022-08-30T01:06:59;101635.38;;;10.41;94.30
12666;BME280;58531;59.050;17.416;2022-08-30T01:09:26;101635.34;;;10.44;93.81
12666;BME280;58531;59.050;17.416;2022-08-30T01:11:55;101639.78;;;10.51;93.04
12666;BME280;58531;59.050;17.416;2022-08-30T01:14:22;101649.09;;;10.43;93.51
12666;BME280;58531;59.050;17.416;2022-08-30T01:16:49;101647.69;;;10.35;94.07
12666;BME280;58531;59.050;17.416;2022-08-30T01:19:23;101642.44;;;10.31;94.42
12666;BME280;58531;59.050;17.416;2022-08-30T01:21:58;101633.31;;;10.29;94.28
12666;BME280;58531;59.050;17.416;2022-08-30T01:24:29;101636.31;;;10.31;94.44
12666;BME280;58531;59.050;17.416;2022-08-30T01:26:56;101634.81;;;10.30;94.62
12666;BME280;58531;59.050;17.416;2022-08-30T01:29:23;101636.28;;;10.34;94.48
12666;BME280;58531;59.050;17.416;2022-08-30T01:31:51;101636.31;;;10.31;94.49
12666;BME280;58531;59.050;17.416;2022-08-30T01:34:18;101636.75;;;10.29;94.75
12666;BME280;58531;59.050;17.416;2022-08-30T01:36:45;101630.72;;;10.25;95.01
12666;BME280;58531;59.050;17.416;2022-08-30T01:39:14;101639.13;;;10.24;95.42
12666;BME280;58531;59.050;17.416;2022-08-30T01:41:43;101640.00;;;10.17;95.65
12666;BME280;58531;59.050;17.416;2022-08-30T01:44:11;101632.75;;;10.18;95.61
12666;BME280;58531;59.050;17.416;2022-08-30T01:46:40;101637.31;;;10.17;96.19
12666;BME280;58531;59.050;17.416;2022-08-30T01:49:10;101634.72;;;10.14;96.50
12666;BME280;58531;59.050;17.416;2022-08-30T01:51:37;101632.09;;;10.10;96.62
12666;BME280;58531;59.050;17.416;2022-08-30T01:54:05;101629.91;;;10.05;96.94
12666;BME280;58531;59.050;17.416;2022-08-30T01:56:32;101632.28;;;9.96;96.39
12666;BME280;58531;59.050;17.416;2022-08-30T01:59:00;101629.34;;;9.91;98.14
12666;BME280;58531;59.050;17.416;2022-08-30T02:01:28;101632.44;;;9.89;98.08
12666;BME280;58531;59.050;17.416;2022-08-30T02:03:55;101631.66;;;9.89;98.30
12666;BME280;58531;59.050;17.416;2022-08-30T02:06:22;101633.22;;;9.86;98.37
12666;BME280;58531;59.050;17.416;2022-08-30T02:08:50;101630.31;;;9.77;99.19
12666;BME280;58531;59.050;17.416;2022-08-30T02:11:17;101631.31;;;9.87;99.55
12666;BME280;58531;59.050;17.416;2022-08-30T02:13:44;101628.72;;;9.83;98.66
12666;BME280;58531;59.050;17.416;2022-08-30T02:16:16;101629.50;;;9.80;99.04
12666;BME280;58531;59.050;17.416;2022-08-30T02:18:43;101627.53;;;9.84;99.87
12666;BME280;58531;59.050;17.416;2022-08-30T02:21:11;101627.59;;;9.81;99.46
12666;BME280;58531;59.050;17.416;2022-08-30T02:23:38;101627.34;;;9.72;99.92
12666;BME280;58531;59.050;17.416;2022-08-30T02:26:04;101620.56;;;9.67;100.00
12666;BME280;58531;59.050;17.416;2022-08-30T02:28:31;101624.66;;;9.72;100.00
12666;BME280;58531;59.050;17.416;2022-08-30T02:30:58;101626.50;;;9.78;100.00
12666;BME280;58531;59.050;17.416;2022-08-30T02:33:26;101626.44;;;9.82;100.00
12666;BME280;58531;59.050;17.416;2022-08-30T02:35:53;101629.88;;;9.82;100.00
12666;BME280;58531;59.050;17.416;2022-08-30T02:38:23;101631.88;;;9.75;100.00
12666;BME280;58531;59.050;17.416;2022-08-30T02:40:51;101633.91;;;9.67;100.00
12666;BME280;58531;59.050;17.416;2022-08-30T02:43:18;101634.00;;;9.60;100.00
12666;BME280;58531;59.050;17.416;2022-08-30T02:45:45;101635.94;;;9.56;100.00
12666;BME280;58531;59.050;17.416;2022-08-30T02:48:12;101636.31;;;9.58;100.00
12666;BME280;58531;59.050;17.416;2022-08-30T02:50:41;101636.66;;;9.60;100.00
12666;BME280;58531;59.050;17.416;2022-08-30T02:53:08;101627.25;;;9.52;100.00
12666;BME280;58531;59.050;17.416;2022-08-30T02:55:35;101627.03;;;9.40;100.00
12666;BME280;58531;59.050;17.416;2022-08-30T02:58:02;101624.97;;;9.25;100.00
12666;BME280;58531;59.050;17.416;2022-08-30T03:00:28;101628.88;;;9.17;100.00
12666;BME280;58531;59.050;17.416;2022-08-30T03:02:56;101620.63;;;9.08;100.00
12666;BME280;58531;59.050;17.416;2022-08-30T03:05:23;101621.47;;;9.01;100.00
12666;BME280;58531;59.050;17.416;2022-08-30T03:07:51;101620.69;;;9.01;100.00
12666;BME280;58531;59.050;17.416;2022-08-30T03:10:18;101623.72;;;9.03;100.00
12666;BME280;58531;59.050;17.416;2022-08-30T03:12:45;101622.81;;;9.16;100.00
12666;BME280;58531;59.050;17.416;2022-08-30T03:15:13;101624.44;;;9.07;100.00
12666;BME280;58531;59.050;17.416;2022-08-30T03:17:40;101626.47;;;8.96;100.00
12666;BME280;58531;59.050;17.416;2022-08-30T03:20:09;101625.66;;;8.99;100.00
12666;BME280;58531;59.050;17.416;2022-08-30T03:22:36;101620.78;;;8.94;100.00
12666;BME280;58531;59.050;17.416;2022-08-30T03:25:06;101628.34;;;8.99;100.00
12666;BME280;58531;59.050;17.416;2022-08-30T03:27:33;101627.63;;;8.95;100.00
12666;BME280;58531;59.050;17.416;2022-08-30T03:30:00;101635.25;;;8.93;100.00
12666;BME280;58531;59.050;17.416;2022-08-30T03:32:27;101635.19;;;9.00;100.00
12666;BME280;58531;59.050;17.416;2022-08-30T03:34:53;101639.72;;;9.03;100.00
12666;BME280;58531;59.050;17.416;2022-08-30T03:37:20;101638.19;;;9.02;100.00
12666;BME280;58531;59.050;17.416;2022-08-30T03:39:49;101635.00;;;9.14;100.00
12666;BME280;58531;59.050;17.416;2022-08-30T03:42:17;101630.41;;;9.18;100.00
12666;BME280;58531;59.050;17.416;2022-08-30T03:44:44;101633.47;;;9.16;100.00
12666;BME280;58531;59.050;17.416;2022-08-30T03:47:11;101634.94;;;9.21;100.00
12666;BME280;58531;59.050;17.416;2022-08-30T03:49:38;101628.47;;;9.18;100.00
12666;BME280;58531;59.050;17.416;2022-08-30T03:52:05;101636.53;;;9.15;100.00
12666;BME280;58531;59.050;17.416;2022-08-30T03:54:31;101644.50;;;9.15;100.00
12666;BME280;58531;59.050;17.416;2022-08-30T03:57:00;101645.66;;;9.17;100.00
12666;BME280;58531;59.050;17.416;2022-08-30T03:59:28;101644.44;;;9.22;100.00
12666;BME280;58531;59.050;17.416;2022-08-30T04:01:55;101650.84;;;9.28;100.00
12666;BME280;58531;59.050;17.416;2022-08-30T04:04:23;101647.03;;;9.25;100.00
12666;BME280;58531;59.050;17.416;2022-08-30T04:06:50;101646.22;;;9.32;100.00
12666;BME280;58531;59.050;17.416;2022-08-30T04:09:17;101653.78;;;9.33;100.00
12666;BME280;58531;59.050;17.416;2022-08-30T04:11:45;101650.31;;;9.36;100.00
12666;BME280;58531;59.050;17.416;2022-08-30T04:14:12;101656.28;;;9.47;100.00
12666;BME280;58531;59.050;17.416;2022-08-30T04:16:40;101658.25;;;9.43;100.00
12666;BME280;58531;59.050;17.416;2022-08-30T04:19:07;101661.34;;;9.38;100.00
12666;BME280;58531;59.050;17.416;2022-08-30T04:21:34;101653.63;;;9.47;100.00
12666;BME280;58531;59.050;17.416;2022-08-30T04:24:01;101662.41;;;9.44;100.00
12666;BME280;58531;59.050;17.416;2022-08-30T04:26:28;101660.47;;;9.48;100.00
12666;BME280;58531;59.050;17.416;2022-08-30T04:28:55;101650.97;;;9.43;100.00
12666;BME280;58531;59.050;17.416;2022-08-30T04:31:23;101655.94;;;9.45;100.00
12666;BME280;58531;59.050;17.416;2022-08-30T04:33:53;101656.63;;;9.49;100.00
12666;BME280;58531;59.050;17.416;2022-08-30T04:36:19;101659.25;;;9.52;100.00
12666;BME280;58531;59.050;17.416;2022-08-30T04:38:46;101661.81;;;9.59;100.00
12666;BME280;58531;59.050;17.416;2022-08-30T04:41:15;101668.47;;;9.74;100.00
12666;BME280;58531;59.050;17.416;2022-08-30T04:43:42;101663.75;;;9.85;100.00
12666;BME280;58531;59.050;17.416;2022-08-30T04:46:09;101671.03;;;10.08;100.00
12666;BME280;58531;59.050;17.416;2022-08-30T04:48:37;101677.19;;;10.28;100.00
12666;BME280;58531;59.050;17.416;2022-08-30T04:51:06;101670.28;;;10.30;100.00
12666;BME280;58531;59.050;17.416;2022-08-30T04:53:34;101673.66;;;10.34;100.00
12666;BME280;58531;59.050;17.416;2022-08-30T04:56:06;101674.34;;;10.38;100.00
12666;BME280;58531;59.050;17.416;2022-08-30T04:58:33;101678.28;;;10.53;100.00
12666;BME280;58531;59.050;17.416;2022-08-30T05:01:00;101678.50;;;10.62;100.00
12666;BME280;58531;59.050;17.416;2022-08-30T05:03:27;101692.81;;;10.71;100.00
12666;BME280;58531;59.050;17.416;2022-08-30T05:05:53;101683.00;;;10.88;99.90
12666;BME280;58531;59.050;17.416;2022-08-30T05:08:22;101688.59;;;10.93;99.31
12666;BME280;58531;59.050;17.416;2022-08-30T05:10:50;101689.72;;;11.15;100.00
12666;BME280;58531;59.050;17.416;2022-08-30T05:13:18;101697.25;;;11.20;96.93
12666;BME280;58531;59.050;17.416;2022-08-30T05:15:46;101697.44;;;11.10;97.08
12666;BME280;58531;59.050;17.416;2022-08-30T05:18:13;101704.22;;;11.88;98.58
12666;BME280;58531;59.050;17.416;2022-08-30T05:20:41;101711.16;;;12.34;94.78
12666;BME280;58531;59.050;17.416;2022-08-30T05:23:08;101712.06;;;12.88;91.19
12666;BME280;58531;59.050;17.416;2022-08-30T05:25:39;101710.25;;;13.91;84.44
12666;BME280;58531;59.050;17.416;2022-08-30T05:28:07;101709.03;;;15.19;77.29
12666;BME280;58531;59.050;17.416;2022-08-30T05:30:35;101698.34;;;15.97;72.96
12666;BME280;58531;59.050;17.416;2022-08-30T05:33:02;101712.53;;;16.37;70.10
12666;BME280;58531;59.050;17.416;2022-08-30T05:35:29;101718.09;;;16.87;68.32
12666;BME280;58531;59.050;17.416;2022-08-30T05:37:57;101715.63;;;17.52;63.63
12666;BME280;58531;59.050;17.416;2022-08-30T05:40:23;101715.13;;;17.63;64.34
12666;BME280;58531;59.050;17.416;2022-08-30T05:42:52;101713.94;;;18.28;63.19
12666;BME280;58531;59.050;17.416;2022-08-30T05:45:19;101706.09;;;18.54;59.74
12666;BME280;58531;59.050;17.416;2022-08-30T05:47:46;101714.31;;;18.74;59.93
12666;BME280;58531;59.050;17.416;2022-08-30T05:50:13;101722.38;;;18.83;58.71
12666;BME280;58531;59.050;17.416;2022-08-30T05:52:41;101727.59;;;19.24;57.59
12666;BME280;58531;59.050;17.416;2022-08-30T05:55:09;101720.56;;;19.46;56.97
12666;BME280;58531;59.050;17.416;2022-08-30T05:57:38;101721.97;;;19.56;56.60
12666;BME280;58531;59.050;17.416;2022-08-30T06:00:10;101727.53;;;20.36;53.08
12666;BME280;58531;59.050;17.416;2022-08-30T06:02:38;101725.75;;;20.93;51.49
12666;BME280;58531;59.050;17.416;2022-08-30T06:05:05;101731.28;;;21.29;50.29
12666;BME280;58531;59.050;17.416;2022-08-30T06:07:32;101736.53;;;21.63;49.91
12666;BME280;58531;59.050;17.416;2022-08-30T06:09:59;101716.78;;;21.12;50.54
12666;BME280;58531;59.050;17.416;2022-08-30T06:12:26;101724.94;;;21.43;49.05
12666;BME280;58531;59.050;17.416;2022-08-30T06:14:53;101728.56;;;21.29;49.53
12666;BME280;58531;59.050;17.416;2022-08-30T06:17:21;101721.81;;;21.50;49.60
12666;BME280;58531;59.050;17.416;2022-08-30T06:19:48;101730.22;;;22.25;46.73
12666;BME280;58531;59.050;17.416;2022-08-30T06:22:15;101735.63;;;21.77;47.40
12666;BME280;58531;59.050;17.416;2022-08-30T06:24:42;101730.09;;;22.50;47.77
12666;BME280;58531;59.050;17.416;2022-08-30T06:27:09;101734.25;;;23.53;44.28
12666;BME280;58531;59.050;17.416;2022-08-30T06:29:36;101733.22;;;23.95;43.34
12666;BME280;58531;59.050;17.416;2022-08-30T06:32:02;101730.28;;;23.16;43.41
12666;BME280;58531;59.050;17.416;2022-08-30T06:34:31;101733.13;;;22.63;46.69
12666;BME280;58531;59.050;17.416;2022-08-30T06:36:57;101731.97;;;22.91;44.17
12666;BME280;58531;59.050;17.416;2022-08-30T06:39:24;101728.19;;;22.78;46.01
12666;BME280;58531;59.050;17.416;2022-08-30T06:41:51;101735.44;;;21.86;47.38
12666;BME280;58531;59.050;17.416;2022-08-30T06:44:18;101730.44;;;21.48;48.37
12666;BME280;58531;59.050;17.416;2022-08-30T06:46:44;101737.09;;;22.15;46.85
12666;BME280;58531;59.050;17.416;2022-08-30T06:49:12;101730.19;;;22.83;46.53
12666;BME280;58531;59.050;17.416;2022-08-30T06:51:40;101733.25;;;23.18;44.33
12666;BME280;58531;59.050;17.416;2022-08-30T06:54:08;101743.19;;;21.62;49.07
12666;BME280;58531;59.050;17.416;2022-08-30T06:56:35;101739.41;;;21.54;48.37
12666;BME280;58531;59.050;17.416;2022-08-30T06:59:02;101738.16;;;21.86;48.02
12666;BME280;58531;59.050;17.416;2022-08-30T07:01:29;101747.53;;;22.85;45.94
12666;BME280;58531;59.050;17.416;2022-08-30T07:03:57;101741.91;;;23.71;43.64
12666;BME280;58531;59.050;17.416;2022-08-30T07:06:26;101737.19;;;23.94;42.54
12666;BME280;58531;59.050;17.416;2022-08-30T07:08:55;101742.50;;;24.37;42.41
12666;BME280;58531;59.050;17.416;2022-08-30T07:11:27;101746.16;;;23.45;44.04
12666;BME280;58531;59.050;17.416;2022-08-30T07:13:55;101745.16;;;23.37;44.15
12666;BME280;58531;59.050;17.416;2022-08-30T07:16:22;101744.03;;;22.74;45.97
12666;BME280;58531;59.050;17.416;2022-08-30T07:18:49;101737.91;;;23.01;44.42
12666;BME280;58531;59.050;17.416;2022-08-30T07:21:17;101746.88;;;21.96;47.39
12666;BME280;58531;59.050;17.416;2022-08-30T07:23:46;101743.56;;;22.17;47.41
12666;BME280;58531;59.050;17.416;2022-08-30T07:26:18;101753.75;;;22.33;47.56
12666;BME280;58531;59.050;17.416;2022-08-30T07:28:45;101747.88;;;21.98;48.32
12666;BME280;58531;59.050;17.416;2022-08-30T07:31:14;101742.44;;;21.98;48.29
12666;BME280;58531;59.050;17.416;2022-08-30T07:33:41;101748.47;;;22.13;47.10
12666;BME280;58531;59.050;17.416;2022-08-30T07:36:08;101749.53;;;21.29;49.25
12666;BME280;58531;59.050;17.416;2022-08-30T07:38:35;101751.13;;;20.30;52.22
12666;BME280;58531;59.050;17.416;2022-08-30T07:41:03;101746.94;;;20.69;52.01
12666;BME280;58531;59.050;17.416;2022-08-30T07:43:32;101739.59;;;20.75;51.69
12666;BME280;58531;59.050;17.416;2022-08-30T07:46:01;101748.75;;;19.69;54.56
12666;BME280;58531;59.050;17.416;2022-08-30T07:48:28;101739.16;;;18.72;56.85
12666;BME280;58531;59.050;17.416;2022-08-30T07:50:54;101743.81;;;18.48;59.28
12666;BME280;58531;59.050;17.416;2022-08-30T07:53:21;101745.28;;;18.35;60.01
12666;BME280;58531;59.050;17.416;2022-08-30T07:55:48;101745.63;;;17.86;60.48
12666;BME280;58531;59.050;17.416;2022-08-30T07:58:15;101754.94;;;17.53;61.58
12666;BME280;58531;59.050;17.416;2022-08-30T08:00:43;101750.00;;;17.43;63.28
12666;BME280;58531;59.050;17.416;2022-08-30T08:03:09;101742.47;;;17.47;62.95
12666;BME280;58531;59.050;17.416;2022-08-30T08:05:38;101742.88;;;17.63;61.99
12666;BME280;58531;59.050;17.416;2022-08-30T08:08:05;101758.38;;;17.45;63.08
12666;BME280;58531;59.050;17.416;2022-08-30T08:10:32;101741.91;;;17.34;64.01
12666;BME280;58531;59.050;17.416;2022-08-30T08:12:59;101738.44;;;17.42;63.67
12666;BME280;58531;59.050;17.416;2022-08-30T08:15:26;101752.53;;;17.28;63.18
12666;BME280;58531;59.050;17.416;2022-08-30T08:17:54;101759.16;;;17.27;62.17
12666;BME280;58531;59.050;17.416;2022-08-30T08:20:21;101762.78;;;17.33;62.77
12666;BME280;58531;59.050;17.416;2022-08-30T08:22:49;101761.69;;;17.40;62.17
12666;BME280;58531;59.050;17.416;2022-08-30T08:25:16;101750.47;;;17.32;63.19
12666;BME280;58531;59.050;17.416;2022-08-30T08:27:45;101756.47;;;17.36;63.13
12666;BME280;58531;59.050;17.416;2022-08-30T08:30:13;101763.66;;;17.12;64.30
12666;BME280;58531;59.050;17.416;2022-08-30T08:32:40;101768.00;;;17.37;63.42
12666;BME280;58531;59.050;17.416;2022-08-30T08:35:08;101761.88;;;17.36;64.11
12666;BME280;58531;59.050;17.416;2022-08-30T08:37:36;101777.00;;;17.34;62.99
12666;BME280;58531;59.050;17.416;2022-08-30T08:40:04;101772.97;;;17.11;63.34
12666;BME280;58531;59.050;17.416;2022-08-30T08:42:38;101778.81;;;17.01;65.16
12666;BME280;58531;59.050;17.416;2022-08-30T08:45:12;101777.91;;;16.68;65.10
12666;BME280;58531;59.050;17.416;2022-08-30T08:47:43;101768.63;;;16.69;66.35
12666;BME280;58531;59.050;17.416;2022-08-30T08:50:18;101766.94;;;17.25;63.66
12666;BME280;58531;59.050;17.416;2022-08-30T08:52:49;101774.06;;;17.73;62.42
12666;BME280;58531;59.050;17.416;2022-08-30T08:55:37;101771.41;;;17.64;61.97
12666;BME280;58531;59.050;17.416;2022-08-30T08:58:05;101779.28;;;17.35;64.09
12666;BME280;58531;59.050;17.416;2022-08-30T09:00:32;101780.59;;;17.49;64.45
12666;BME280;58531;59.050;17.416;2022-08-30T09:03:02;101783.09;;;17.61;63.46
12666;BME280;58531;59.050;17.416;2022-08-30T09:05:35;101769.69;;;18.17;62.03
12666;BME280;58531;59.050;17.416;2022-08-30T09:08:05;101774.69;;;18.42;60.35
12666;BME280;58531;59.050;17.416;2022-08-30T09:10:34;101775.03;;;18.35;60.49
12666;BME280;58531;59.050;17.416;2022-08-30T09:13:01;101774.34;;;18.25;60.32
12666;BME280;58531;59.050;17.416;2022-08-30T09:15:30;101775.50;;;18.57;59.49
12666;BME280;58531;59.050;17.416;2022-08-30T09:18:00;101767.25;;;18.75;57.69
12666;BME280;58531;59.050;17.416;2022-08-30T09:20:36;101783.91;;;18.59;58.21
12666;BME280;58531;59.050;17.416;2022-08-30T09:23:21;101781.59;;;18.43;58.63
12666;BME280;58531;59.050;17.416;2022-08-30T09:25:54;101776.81;;;18.61;57.37
12666;BME280;58531;59.050;17.416;2022-08-30T09:28:23;101780.84;;;18.66;58.11
12666;BME280;58531;59.050;17.416;2022-08-30T09:30:59;101774.69;;;18.42;58.92
12666;BME280;58531;59.050;17.416;2022-08-30T09:33:27;101776.81;;;18.38;59.54
12666;BME280;58531;59.050;17.416;2022-08-30T09:35:56;101784.47;;;18.63;58.77
12666;BME280;58531;59.050;17.416;2022-08-30T09:38:34;101779.81;;;19.01;56.58
12666;BME280;58531;59.050;17.416;2022-08-30T09:41:26;101787.06;;;19.18;55.02
12666;BME280;58531;59.050;17.416;2022-08-30T09:44:04;101787.06;;;18.81;55.44
12666;BME280;58531;59.050;17.416;2022-08-30T09:46:32;101787.06;;;18.34;57.74
12666;BME280;58531;59.050;17.416;2022-08-30T09:48:59;101792.38;;;18.19;58.67
12666;BME280;58531;59.050;17.416;2022-08-30T09:51:42;101788.38;;;18.06;57.30
12666;BME280;58531;59.050;17.416;2022-08-30T09:54:18;101788.69;;;17.58;59.90
12666;BME280;58531;59.050;17.416;2022-08-30T09:56:58;101798.03;;;17.21;60.64
12666;BME280;58531;59.050;17.416;2022-08-30T09:59:38;101786.91;;;17.46;60.18
12666;BME280;58531;59.050;17.416;2022-08-30T10:02:23;101775.34;;;17.95;59.87
12666;BME280;58531;59.050;17.416;2022-08-30T10:04:59;101781.41;;;18.14;58.47
12666;BME280;58531;59.050;17.416;2022-08-30T10:07:33;101778.59;;;18.41;59.44
12666;BME280;58531;59.050;17.416;2022-08-30T10:10:08;101782.28;;;18.76;59.00
12666;BME280;58531;59.050;17.416;2022-08-30T10:12:42;101785.19;;;18.49;58.12
12666;BME280;58531;59.050;17.416;2022-08-30T10:15:16;101772.78;;;18.33;57.52
12666;BME280;58531;59.050;17.416;2022-08-30T10:17:52;101793.00;;;18.14;58.10
12666;BME280;58531;59.050;17.416;2022-08-30T10:20:25;101788.16;;;18.27;57.90
12666;BME280;58531;59.050;17.416;2022-08-30T10:23:00;101796.38;;;18.33;56.56
12666;BME280;58531;59.050;17.416;2022-08-30T10:25:34;101790.69;;;18.31;58.79
12666;BME280;58531;59.050;17.416;2022-08-30T10:28:06;101785.19;;;18.49;56.81
12666;BME280;58531;59.050;17.416;2022-08-30T10:30:38;101789.03;;;18.80;55.49
12666;BME280;58531;59.050;17.416;2022-08-30T10:33:09;101793.91;;;19.05;55.37
12666;BME280;58531;59.050;17.416;2022-08-30T10:35:42;101797.34;;;18.68;56.18
12666;BME280;58531;59.050;17.416;2022-08-30T10:38:17;101799.38;;;17.93;57.94
12666;BME280;58531;59.050;17.416;2022-08-30T10:40:48;101787.13;;;17.83;58.71
12666;BME280;58531;59.050;17.416;2022-08-30T10:43:44;101793.88;;;18.20;58.29
12666;BME280;58531;59.050;17.416;2022-08-30T10:46:18;101790.34;;;18.38;55.68
12666;BME280;58531;59.050;17.416;2022-08-30T10:48:48;101784.84;;;18.23;56.29
12666;BME280;58531;59.050;17.416;2022-08-30T10:51:20;101787.88;;;18.16;56.52
12666;BME280;58531;59.050;17.416;2022-08-30T10:53:54;101791.88;;;18.77;56.58
12666;BME280;58531;59.050;17.416;2022-08-30T10:56:23;101776.88;;;19.13;54.38
12666;BME280;58531;59.050;17.416;2022-08-30T10:58:54;101791.75;;;18.95;53.74
12666;BME280;58531;59.050;17.416;2022-08-30T11:01:43;101795.75;;;18.85;53.76
12666;BME280;58531;59.050;17.416;2022-08-30T11:04:42;101812.03;;;18.20;55.88
12666;BME280;58531;59.050;17.416;2022-08-30T11:07:23;101803.34;;;18.16;57.11
12666;BME280;58531;59.050;17.416;2022-08-30T11:10:06;101792.94;;;18.56;56.92
12666;BME280;58531;59.050;17.416;2022-08-30T11:12:41;101791.09;;;18.62;54.75
12666;BME280;58531;59.050;17.416;2022-08-30T11:15:17;101795.66;;;18.23;56.68
12666;BME280;58531;59.050;17.416;2022-08-30T11:17:53;101801.56;;;17.63;59.66
12666;BME280;58531;59.050;17.416;2022-08-30T11:20:29;101809.56;;;17.57;59.79
12666;BME280;58531;59.050;17.416;2022-08-30T11:23:20;101808.31;;;17.67;61.77
12666;BME280;58531;59.050;17.416;2022-08-30T11:25:53;101789.81;;;18.48;57.53
12666;BME280;58531;59.050;17.416;2022-08-30T11:28:59;101807.16;;;18.65;58.24
12666;BME280;58531;59.050;17.416;2022-08-30T11:31:39;101800.41;;;18.37;57.08
12666;BME280;58531;59.050;17.416;2022-08-30T11:34:07;101800.06;;;18.44;57.34
12666;BME280;58531;59.050;17.416;2022-08-30T11:37:04;101811.28;;;18.28;56.10
12666;BME280;58531;59.050;17.416;2022-08-30T11:39:54;101816.66;;;17.96;57.16
12666;BME280;58531;59.050;17.416;2022-08-30T11:42:44;101809.59;;;17.89;57.45
12666;BME280;58531;59.050;17.416;2022-08-30T11:45:45;101814.50;;;18.65;56.74
12666;BME280;58531;59.050;17.416;2022-08-30T11:48:43;101815.56;;;18.91;53.18
12666;BME280;58531;59.050;17.416;2022-08-30T11:51:53;101828.31;;;18.43;55.72
12666;BME280;58531;59.050;17.416;2022-08-30T11:54:31;101825.66;;;18.02;55.69
12666;BME280;58531;59.050;17.416;2022-08-30T11:57:09;101814.91;;;17.75;57.00
12666;BME280;58531;59.050;17.416;2022-08-30T11:59:49;101819.72;;;17.71;58.52
12666;BME280;58531;59.050;17.416;2022-08-30T12:02:48;101819.78;;;17.35;59.30
12666;BME280;58531;59.050;17.416;2022-08-30T12:05:48;101824.38;;;16.90;59.36
12666;BME280;58531;59.050;17.416;2022-08-30T12:08:42;101822.19;;;16.40;60.66
12666;BME280;58531;59.050;17.416;2022-08-30T12:17:50;101813.16;;;17.45;57.96
12666;BME280;58531;59.050;17.416;2022-08-30T12:20:40;101822.44;;;17.62;57.78
12666;BME280;58531;59.050;17.416;2022-08-30T12:23:18;101809.50;;;17.75;57.08
12666;BME280;58531;59.050;17.416;2022-08-30T12:25:45;101818.88;;;17.97;56.30
12666;BME280;58531;59.050;17.416;2022-08-30T12:28:15;101812.44;;;17.95;56.08
12666;BME280;58531;59.050;17.416;2022-08-30T12:30:46;101814.16;;;17.75;56.54
12666;BME280;58531;59.050;17.416;2022-08-30T12:33:23;101818.38;;;17.67;58.07
12666;BME280;58531;59.050;17.416;2022-08-30T12:35:51;101812.19;;;17.75;57.24
12666;BME280;58531;59.050;17.416;2022-08-30T12:38:20;101813.25;;;18.19;55.87
12666;BME280;58531;59.050;17.416;2022-08-30T12:40:49;101810.09;;;18.29;53.51
12666;BME280;58531;59.050;17.416;2022-08-30T12:43:23;101821.13;;;18.08;53.74
12666;BME280;58531;59.050;17.416;2022-08-30T12:45:53;101809.81;;;18.18;54.87
12666;BME280;58531;59.050;17.416;2022-08-30T12:48:24;101806.03;;;18.25;53.48
12666;BME280;58531;59.050;17.416;2022-08-30T12:50:55;101804.31;;;18.36;55.31
12666;BME280;58531;59.050;17.416;2022-08-30T12:53:26;101808.59;;;18.75;55.16
12666;BME280;58531;59.050;17.416;2022-08-30T12:55:56;101826.69;;;19.07;56.16
12666;BME280;58531;59.050;17.416;2022-08-30T12:58:36;101814.97;;;18.87;54.39
12666;BME280;58531;59.050;17.416;2022-08-30T13:01:15;101814.00;;;18.28;55.94
12666;BME280;58531;59.050;17.416;2022-08-30T13:03:56;101822.34;;;17.98;56.63